sensor_id;sensor_type;location;lat;lon;timestamp;P1;durP1;ratioP1;P2;durP2;ratioP2
3755;SDS011;1893;52.526;13.360;2024-02-28T00:01:31;33.63;;;13.37;;
3755;SDS011;1893;52.526;13.360;2024-02-28T00:03:56;31.07;;;14.63;;
3755;SDS011;1893;52.526;13.360;2024-02-28T00:06:22;31.63;;;13.87;;
3755;SDS011;1893;52.526;13.360;2024-02-28T00:08:48;26.37;;;11.53;;
3755;SDS011;1893;52.526;13.360;2024-02-28T00:11:15;24.90;;;11.30;;
3755;SDS011;1893;52.526;13.360;2024-02-28T00:13:41;29.37;;;12.90;;
3755;SDS011;1893;52.526;13.360;2024-02-28T00:16:07;29.30;;;12.63;;
3755;SDS011;1893;52.526;13.360;2024-02-28T00:18:32;32.50;;;13.60;;
3755;SDS011;1893;52.526;13.360;2024-02-28T00:20:58;27.83;;;12.40;;
3755;SDS011;1893;52.526;13.360;2024-02-28T00:23:24;29.90;;;12.80;;
3755;SDS011;1893;52.526;13.360;2024-02-28T00:25:50;30.00;;;12.97;;
3755;SDS011;1893;52.526;13.360;2024-02-28T00:28:15;30.30;;;13.13;;
3755;SDS011;1893;52.526;13.360;2024-02-28T00:30:41;36.20;;;13.37;;
3755;SDS011;1893;52.526;13.360;2024-02-28T00:33:06;31.17;;;13.33;;
3755;SDS011;1893;52.526;13.360;2024-02-28T00:35:32;34.57;;;14.77;;
3755;SDS011;1893;52.526;13.360;2024-02-28T00:37:59;34.33;;;13.63;;
3755;SDS011;1893;52.526;13.360;2024-02-28T00:40:25;39.20;;;15.80;;
3755;SDS011;1893;52.526;13.360;2024-02-28T00:42:51;31.57;;;15.03;;
3755;SDS011;1893;52.526;13.360;2024-02-28T00:45:16;34.27;;;14.70;;
3755;SDS011;1893;52.526;13.360;2024-02-28T00:47:42;33.50;;;15.40;;
3755;SDS011;1893;52.526;13.360;2024-02-28T00:50:08;29.90;;;14.10;;
3755;SDS011;1893;52.526;13.360;2024-02-28T00:52:34;30.47;;;13.67;;
3755;SDS011;1893;52.526;13.360;2024-02-28T00:55:00;32.57;;;15.53;;
3755;SDS011;1893;52.526;13.360;2024-02-28T00:57:26;31.63;;;15.17;;
3755;SDS011;1893;52.526;13.360;2024-02-28T00:59:51;28.13;;;12.17;;
3755;SDS011;1893;52.526;13.360;2024-02-28T01:02:19;27.53;;;12.00;;
3755;SDS011;1893;52.526;13.360;2024-02-28T01:04:45;28.70;;;13.60;;
3755;SDS011;1893;52.526;13.360;2024-02-28T01:07:10;33.33;;;15.00;;
3755;SDS011;1893;52.526;13.360;2024-02-28T01:09:36;33.30;;;14.20;;
3755;SDS011;1893;52.526;13.360;2024-02-28T01:12:02;44.73;;;15.70;;
3755;SDS011;1893;52.526;13.360;2024-02-28T01:14:27;30.43;;;15.17;;
3755;SDS011;1893;52.526;13.360;2024-02-28T01:16:53;37.33;;;16.47;;
3755;SDS011;1893;52.526;13.360;2024-02-28T01:19:19;33.80;;;16.17;;
3755;SDS011;1893;52.526;13.360;2024-02-28T01:21:44;41.03;;;18.03;;
3755;SDS011;1893;52.526;13.360;2024-02-28T01:24:10;43.90;;;16.57;;
3755;SDS011;1893;52.526;13.360;2024-02-28T01:26:35;41.87;;;16.00;;
3755;SDS011;1893;52.526;13.360;2024-02-28T01:29:01;40.70;;;16.00;;
3755;SDS011;1893;52.526;13.360;2024-02-28T01:31:27;38.00;;;15.33;;
3755;SDS011;1893;52.526;13.360;2024-02-28T01:33:53;38.33;;;16.03;;
3755;SDS011;1893;52.526;13.360;2024-02-28T01:36:20;34.37;;;14.43;;
3755;SDS011;1893;52.526;13.360;2024-02-28T01:38:46;39.17;;;16.10;;
3755;SDS011;1893;52.526;13.360;2024-02-28T01:41:11;31.47;;;14.70;;
3755;SDS011;1893;52.526;13.360;2024-02-28T01:43:37;32.00;;;14.57;;
3755;SDS011;1893;52.526;13.360;2024-02-28T01:46:03;34.23;;;14.83;;
3755;SDS011;1893;52.526;13.360;2024-02-28T01:48:38;29.23;;;12.83;;
3755;SDS011;1893;52.526;13.360;2024-02-28T01:51:04;31.40;;;13.53;;
3755;SDS011;1893;52.526;13.360;2024-02-28T01:53:30;25.20;;;11.50;;
3755;SDS011;1893;52.526;13.360;2024-02-28T01:55:56;26.20;;;12.07;;
3755;SDS011;1893;52.526;13.360;2024-02-28T01:58:22;27.13;;;11.93;;
3755;SDS011;1893;52.526;13.360;2024-02-28T02:00:48;27.70;;;12.77;;
3755;SDS011;1893;52.526;13.360;2024-02-28T02:03:14;30.57;;;13.00;;
3755;SDS011;1893;52.526;13.360;2024-02-28T02:05:41;23.67;;;11.60;;
3755;SDS011;1893;52.526;13.360;2024-02-28T02:08:08;20.03;;;10.43;;
3755;SDS011;1893;52.526;13.360;2024-02-28T02:10:34;29.17;;;12.50;;
3755;SDS011;1893;52.526;13.360;2024-02-28T02:13:06;22.90;;;11.83;;
3755;SDS011;1893;52.526;13.360;2024-02-28T02:15:31;26.37;;;12.17;;
3755;SDS011;1893;52.526;13.360;2024-02-28T02:17:57;19.73;;;9.13;;
3755;SDS011;1893;52.526;13.360;2024-02-28T02:20:23;21.80;;;10.73;;
3755;SDS011;1893;52.526;13.360;2024-02-28T02:22:51;21.27;;;10.30;;
3755;SDS011;1893;52.526;13.360;2024-02-28T02:25:18;21.20;;;9.97;;
3755;SDS011;1893;52.526;13.360;2024-02-28T02:27:43;18.57;;;10.37;;
3755;SDS011;1893;52.526;13.360;2024-02-28T02:30:09;21.33;;;10.17;;
3755;SDS011;1893;52.526;13.360;2024-02-28T02:32:35;21.30;;;9.10;;
3755;SDS011;1893;52.526;13.360;2024-02-28T02:35:01;17.20;;;8.20;;
3755;SDS011;1893;52.526;13.360;2024-02-28T02:37:27;18.77;;;10.37;;
3755;SDS011;1893;52.526;13.360;2024-02-28T02:39:52;15.47;;;8.60;;
3755;SDS011;1893;52.526;13.360;2024-02-28T02:42:18;17.67;;;8.00;;
3755;SDS011;1893;52.526;13.360;2024-02-28T02:44:44;13.53;;;7.20;;
3755;SDS011;1893;52.526;13.360;2024-02-28T02:47:09;17.43;;;7.23;;
3755;SDS011;1893;52.526;13.360;2024-02-28T02:49:35;15.50;;;8.13;;
3755;SDS011;1893;52.526;13.360;2024-02-28T02:52:01;18.17;;;8.47;;
3755;SDS011;1893;52.526;13.360;2024-02-28T02:54:26;16.70;;;7.30;;
3755;SDS011;1893;52.526;13.360;2024-02-28T02:56:52;19.50;;;9.87;;
3755;SDS011;1893;52.526;13.360;2024-02-28T02:59:17;15.00;;;7.80;;
3755;SDS011;1893;52.526;13.360;2024-02-28T03:01:46;18.73;;;8.97;;
3755;SDS011;1893;52.526;13.360;2024-02-28T03:04:12;16.47;;;9.50;;
3755;SDS011;1893;52.526;13.360;2024-02-28T03:06:38;16.13;;;8.00;;
3755;SDS011;1893;52.526;13.360;2024-02-28T03:09:03;21.33;;;9.40;;
3755;SDS011;1893;52.526;13.360;2024-02-28T03:11:29;16.50;;;7.93;;
3755;SDS011;1893;52.526;13.360;2024-02-28T03:13:55;21.90;;;8.20;;
3755;SDS011;1893;52.526;13.360;2024-02-28T03:16:20;15.13;;;7.37;;
3755;SDS011;1893;52.526;13.360;2024-02-28T03:18:46;18.67;;;9.00;;
3755;SDS011;1893;52.526;13.360;2024-02-28T03:21:12;13.90;;;8.30;;
3755;SDS011;1893;52.526;13.360;2024-02-28T03:23:37;17.70;;;8.43;;
3755;SDS011;1893;52.526;13.360;2024-02-28T03:26:14;15.40;;;7.67;;
3755;SDS011;1893;52.526;13.360;2024-02-28T03:28:39;21.17;;;9.53;;
3755;SDS011;1893;52.526;13.360;2024-02-28T03:31:05;16.40;;;7.67;;
3755;SDS011;1893;52.526;13.360;2024-02-28T03:33:30;13.00;;;7.70;;
3755;SDS011;1893;52.526;13.360;2024-02-28T03:35:57;14.43;;;7.90;;
3755;SDS011;1893;52.526;13.360;2024-02-28T03:38:23;21.63;;;7.80;;
3755;SDS011;1893;52.526;13.360;2024-02-28T03:40:49;15.77;;;7.77;;
3755;SDS011;1893;52.526;13.360;2024-02-28T03:43:17;16.03;;;8.20;;
3755;SDS011;1893;52.526;13.360;2024-02-28T03:45:43;16.07;;;7.90;;
3755;SDS011;1893;52.526;13.360;2024-02-28T03:48:08;13.77;;;7.30;;
3755;SDS011;1893;52.526;13.360;2024-02-28T03:50:34;12.17;;;6.30;;
3755;SDS011;1893;52.526;13.360;2024-02-28T03:52:59;8.17;;;5.70;;
3755;SDS011;1893;52.526;13.360;2024-02-28T03:55:25;12.43;;;5.50;;
3755;SDS011;1893;52.526;13.360;2024-02-28T03:57:50;13.63;;;5.77;;
3755;SDS011;1893;52.526;13.360;2024-02-28T04:00:17;7.17;;;4.97;;
3755;SDS011;1893;52.526;13.360;2024-02-28T04:02:43;10.90;;;5.17;;
3755;SDS011;1893;52.526;13.360;2024-02-28T04:05:09;9.57;;;5.40;;
3755;SDS011;1893;52.526;13.360;2024-02-28T04:07:34;10.07;;;5.23;;
3755;SDS011;1893;52.526;13.360;2024-02-28T04:10:00;8.50;;;4.90;;
3755;SDS011;1893;52.526;13.360;2024-02-28T04:12:26;10.77;;;4.53;;
3755;SDS011;1893;52.526;13.360;2024-02-28T04:14:51;8.30;;;4.17;;
3755;SDS011;1893;52.526;13.360;2024-02-28T04:17:17;8.43;;;4.60;;
3755;SDS011;1893;52.526;13.360;2024-02-28T04:19:42;7.87;;;4.70;;
3755;SDS011;1893;52.526;13.360;2024-02-28T04:22:09;10.47;;;4.90;;
3755;SDS011;1893;52.526;13.360;2024-02-28T04:24:35;6.90;;;4.40;;
3755;SDS011;1893;52.526;13.360;2024-02-28T04:27:00;10.43;;;5.60;;
3755;SDS011;1893;52.526;13.360;2024-02-28T04:29:29;9.60;;;5.47;;
3755;SDS011;1893;52.526;13.360;2024-02-28T04:31:55;9.67;;;6.03;;
3755;SDS011;1893;52.526;13.360;2024-02-28T04:34:20;10.57;;;5.17;;
3755;SDS011;1893;52.526;13.360;2024-02-28T04:36:46;12.60;;;5.90;;
3755;SDS011;1893;52.526;13.360;2024-02-28T04:39:11;8.70;;;6.00;;
3755;SDS011;1893;52.526;13.360;2024-02-28T04:41:37;9.70;;;5.60;;
3755;SDS011;1893;52.526;13.360;2024-02-28T04:44:03;9.33;;;5.50;;
3755;SDS011;1893;52.526;13.360;2024-02-28T04:46:28;9.07;;;5.80;;
3755;SDS011;1893;52.526;13.360;2024-02-28T04:48:54;11.70;;;5.40;;
3755;SDS011;1893;52.526;13.360;2024-02-28T04:51:20;9.60;;;5.70;;
3755;SDS011;1893;52.526;13.360;2024-02-28T04:53:45;8.70;;;4.83;;
3755;SDS011;1893;52.526;13.360;2024-02-28T04:56:11;9.87;;;5.47;;
3755;SDS011;1893;52.526;13.360;2024-02-28T04:58:36;11.80;;;4.90;;
3755;SDS011;1893;52.526;13.360;2024-02-28T05:01:02;7.67;;;4.80;;
3755;SDS011;1893;52.526;13.360;2024-02-28T05:03:28;8.83;;;4.67;;
3755;SDS011;1893;52.526;13.360;2024-02-28T05:05:54;10.30;;;5.37;;
3755;SDS011;1893;52.526;13.360;2024-02-28T05:08:20;6.50;;;5.00;;
3755;SDS011;1893;52.526;13.360;2024-02-28T05:10:46;7.00;;;4.33;;
3755;SDS011;1893;52.526;13.360;2024-02-28T05:13:11;6.67;;;3.90;;
3755;SDS011;1893;52.526;13.360;2024-02-28T05:15:37;8.33;;;4.40;;
3755;SDS011;1893;52.526;13.360;2024-02-28T05:18:03;5.70;;;4.20;;
3755;SDS011;1893;52.526;13.360;2024-02-28T05:20:29;6.10;;;3.80;;
3755;SDS011;1893;52.526;13.360;2024-02-28T05:22:54;6.77;;;4.40;;
3755;SDS011;1893;52.526;13.360;2024-02-28T05:25:20;8.30;;;5.00;;
3755;SDS011;1893;52.526;13.360;2024-02-28T05:27:45;7.00;;;3.77;;
3755;SDS011;1893;52.526;13.360;2024-02-28T05:30:11;6.43;;;4.40;;
3755;SDS011;1893;52.526;13.360;2024-02-28T05:32:37;7.50;;;4.50;;
3755;SDS011;1893;52.526;13.360;2024-02-28T05:35:02;7.33;;;4.47;;
3755;SDS011;1893;52.526;13.360;2024-02-28T05:37:28;10.83;;;5.17;;
3755;SDS011;1893;52.526;13.360;2024-02-28T05:39:54;6.40;;;4.40;;
3755;SDS011;1893;52.526;13.360;2024-02-28T05:42:19;7.93;;;4.17;;
3755;SDS011;1893;52.526;13.360;2024-02-28T05:44:49;8.30;;;4.50;;
3755;SDS011;1893;52.526;13.360;2024-02-28T05:47:15;7.80;;;4.63;;
3755;SDS011;1893;52.526;13.360;2024-02-28T05:49:41;7.07;;;3.83;;
3755;SDS011;1893;52.526;13.360;2024-02-28T05:52:07;8.90;;;4.77;;
3755;SDS011;1893;52.526;13.360;2024-02-28T05:54:32;9.00;;;4.53;;
3755;SDS011;1893;52.526;13.360;2024-02-28T05:57:01;11.43;;;5.37;;
3755;SDS011;1893;52.526;13.360;2024-02-28T05:59:27;7.00;;;4.67;;
3755;SDS011;1893;52.526;13.360;2024-02-28T06:01:53;7.90;;;5.30;;
3755;SDS011;1893;52.526;13.360;2024-02-28T06:04:18;9.73;;;5.40;;
3755;SDS011;1893;52.526;13.360;2024-02-28T06:06:44;12.23;;;5.10;;
3755;SDS011;1893;52.526;13.360;2024-02-28T06:09:10;8.90;;;5.50;;
3755;SDS011;1893;52.526;13.360;2024-02-28T06:11:35;9.93;;;5.33;;
3755;SDS011;1893;52.526;13.360;2024-02-28T06:14:01;13.43;;;6.60;;
3755;SDS011;1893;52.526;13.360;2024-02-28T06:16:29;12.70;;;7.30;;
3755;SDS011;1893;52.526;13.360;2024-02-28T06:18:54;12.37;;;6.50;;
3755;SDS011;1893;52.526;13.360;2024-02-28T06:21:23;16.47;;;7.40;;
3755;SDS011;1893;52.526;13.360;2024-02-28T06:23:49;9.40;;;6.50;;
3755;SDS011;1893;52.526;13.360;2024-02-28T06:26:14;14.37;;;7.20;;
3755;SDS011;1893;52.526;13.360;2024-02-28T06:28:42;15.60;;;7.20;;
3755;SDS011;1893;52.526;13.360;2024-02-28T06:31:14;12.00;;;7.40;;
3755;SDS011;1893;52.526;13.360;2024-02-28T06:33:41;15.97;;;7.00;;
3755;SDS011;1893;52.526;13.360;2024-02-28T06:36:07;16.13;;;7.63;;
3755;SDS011;1893;52.526;13.360;2024-02-28T06:38:33;12.40;;;6.37;;
3755;SDS011;1893;52.526;13.360;2024-02-28T06:41:00;13.83;;;7.80;;
3755;SDS011;1893;52.526;13.360;2024-02-28T06:43:27;12.73;;;6.87;;
3755;SDS011;1893;52.526;13.360;2024-02-28T06:45:53;11.77;;;6.80;;
3755;SDS011;1893;52.526;13.360;2024-02-28T06:48:18;14.80;;;7.77;;
3755;SDS011;1893;52.526;13.360;2024-02-28T06:50:44;12.83;;;7.80;;
3755;SDS011;1893;52.526;13.360;2024-02-28T06:53:10;11.57;;;6.43;;
3755;SDS011;1893;52.526;13.360;2024-02-28T06:55:35;11.50;;;6.63;;
3755;SDS011;1893;52.526;13.360;2024-02-28T06:58:01;12.20;;;6.80;;
3755;SDS011;1893;52.526;13.360;2024-02-28T07:00:27;15.60;;;7.97;;
3755;SDS011;1893;52.526;13.360;2024-02-28T07:02:52;12.47;;;6.80;;
3755;SDS011;1893;52.526;13.360;2024-02-28T07:05:18;8.33;;;5.43;;
3755;SDS011;1893;52.526;13.360;2024-02-28T07:07:44;14.03;;;6.70;;
3755;SDS011;1893;52.526;13.360;2024-02-28T07:10:09;12.30;;;6.13;;
3755;SDS011;1893;52.526;13.360;2024-02-28T07:12:35;14.43;;;6.20;;
3755;SDS011;1893;52.526;13.360;2024-02-28T07:15:01;11.97;;;6.97;;
3755;SDS011;1893;52.526;13.360;2024-02-28T07:17:27;14.63;;;6.37;;
3755;SDS011;1893;52.526;13.360;2024-02-28T07:19:53;17.97;;;9.23;;
3755;SDS011;1893;52.526;13.360;2024-02-28T07:22:18;11.47;;;6.73;;
3755;SDS011;1893;52.526;13.360;2024-02-28T07:24:44;12.73;;;6.03;;
3755;SDS011;1893;52.526;13.360;2024-02-28T07:27:10;14.37;;;6.67;;
3755;SDS011;1893;52.526;13.360;2024-02-28T07:29:38;9.63;;;6.73;;
3755;SDS011;1893;52.526;13.360;2024-02-28T07:32:04;12.60;;;6.03;;
3755;SDS011;1893;52.526;13.360;2024-02-28T07:34:30;13.17;;;6.83;;
3755;SDS011;1893;52.526;13.360;2024-02-28T07:36:55;12.90;;;6.83;;
3755;SDS011;1893;52.526;13.360;2024-02-28T07:39:22;11.17;;;6.20;;
3755;SDS011;1893;52.526;13.360;2024-02-28T07:41:49;9.87;;;5.93;;
3755;SDS011;1893;52.526;13.360;2024-02-28T07:44:15;11.43;;;6.10;;
3755;SDS011;1893;52.526;13.360;2024-02-28T07:46:41;11.23;;;5.40;;
3755;SDS011;1893;52.526;13.360;2024-02-28T07:49:07;11.90;;;6.00;;
3755;SDS011;1893;52.526;13.360;2024-02-28T07:51:33;10.20;;;6.87;;
3755;SDS011;1893;52.526;13.360;2024-02-28T07:53:59;15.40;;;7.40;;
3755;SDS011;1893;52.526;13.360;2024-02-28T07:56:24;10.30;;;6.50;;
3755;SDS011;1893;52.526;13.360;2024-02-28T07:58:50;10.70;;;5.63;;
3755;SDS011;1893;52.526;13.360;2024-02-28T08:01:16;9.40;;;6.23;;
3755;SDS011;1893;52.526;13.360;2024-02-28T08:03:41;10.20;;;5.47;;
3755;SDS011;1893;52.526;13.360;2024-02-28T08:06:07;15.80;;;7.87;;
3755;SDS011;1893;52.526;13.360;2024-02-28T08:08:36;12.60;;;6.67;;
3755;SDS011;1893;52.526;13.360;2024-02-28T08:11:02;10.07;;;6.30;;
3755;SDS011;1893;52.526;13.360;2024-02-28T08:13:28;13.37;;;6.37;;
3755;SDS011;1893;52.526;13.360;2024-02-28T08:15:54;9.30;;;4.83;;
3755;SDS011;1893;52.526;13.360;2024-02-28T08:18:20;10.97;;;5.40;;
3755;SDS011;1893;52.526;13.360;2024-02-28T08:20:45;12.93;;;6.53;;
3755;SDS011;1893;52.526;13.360;2024-02-28T08:23:11;9.47;;;5.33;;
3755;SDS011;1893;52.526;13.360;2024-02-28T08:25:37;10.87;;;5.70;;
3755;SDS011;1893;52.526;13.360;2024-02-28T08:28:03;10.33;;;6.10;;
3755;SDS011;1893;52.526;13.360;2024-02-28T08:30:29;10.30;;;5.30;;
3755;SDS011;1893;52.526;13.360;2024-02-28T08:32:54;14.57;;;6.23;;
3755;SDS011;1893;52.526;13.360;2024-02-28T08:35:20;10.83;;;5.03;;
3755;SDS011;1893;52.526;13.360;2024-02-28T08:37:45;8.87;;;5.43;;
3755;SDS011;1893;52.526;13.360;2024-02-28T08:40:11;10.13;;;6.10;;
3755;SDS011;1893;52.526;13.360;2024-02-28T08:42:37;12.97;;;7.07;;
3755;SDS011;1893;52.526;13.360;2024-02-28T08:45:03;10.30;;;6.03;;
3755;SDS011;1893;52.526;13.360;2024-02-28T08:47:31;12.30;;;6.60;;
3755;SDS011;1893;52.526;13.360;2024-02-28T08:49:57;12.70;;;7.20;;
3755;SDS011;1893;52.526;13.360;2024-02-28T08:52:22;15.53;;;7.40;;
3755;SDS011;1893;52.526;13.360;2024-02-28T08:54:48;15.27;;;8.60;;
3755;SDS011;1893;52.526;13.360;2024-02-28T08:57:14;16.70;;;8.90;;
3755;SDS011;1893;52.526;13.360;2024-02-28T08:59:40;15.27;;;8.13;;
3755;SDS011;1893;52.526;13.360;2024-02-28T09:02:06;16.57;;;7.40;;
3755;SDS011;1893;52.526;13.360;2024-02-28T09:04:32;18.17;;;9.10;;
3755;SDS011;1893;52.526;13.360;2024-02-28T09:06:58;14.50;;;8.30;;
3755;SDS011;1893;52.526;13.360;2024-02-28T09:09:24;18.30;;;8.77;;
3755;SDS011;1893;52.526;13.360;2024-02-28T09:11:49;19.23;;;9.03;;
3755;SDS011;1893;52.526;13.360;2024-02-28T09:14:15;18.53;;;9.70;;
3755;SDS011;1893;52.526;13.360;2024-02-28T09:16:41;24.47;;;10.53;;
3755;SDS011;1893;52.526;13.360;2024-02-28T09:19:06;20.20;;;9.80;;
3755;SDS011;1893;52.526;13.360;2024-02-28T09:21:32;21.40;;;10.10;;
3755;SDS011;1893;52.526;13.360;2024-02-28T09:23:57;20.43;;;10.67;;
3755;SDS011;1893;52.526;13.360;2024-02-28T09:26:23;20.07;;;9.03;;
3755;SDS011;1893;52.526;13.360;2024-02-28T09:28:49;25.50;;;10.30;;
3755;SDS011;1893;52.526;13.360;2024-02-28T09:31:14;24.00;;;10.23;;
3755;SDS011;1893;52.526;13.360;2024-02-28T09:33:43;22.47;;;11.73;;
3755;SDS011;1893;52.526;13.360;2024-02-28T09:36:11;20.73;;;11.40;;
3755;SDS011;1893;52.526;13.360;2024-02-28T09:38:37;21.47;;;10.90;;
3755;SDS011;1893;52.526;13.360;2024-02-28T09:41:03;24.87;;;12.73;;
3755;SDS011;1893;52.526;13.360;2024-02-28T09:43:30;22.43;;;11.40;;
3755;SDS011;1893;52.526;13.360;2024-02-28T09:46:01;20.20;;;10.57;;
3755;SDS011;1893;52.526;13.360;2024-02-28T09:48:29;22.97;;;11.23;;
3755;SDS011;1893;52.526;13.360;2024-02-28T09:50:59;27.13;;;12.87;;
3755;SDS011;1893;52.526;13.360;2024-02-28T09:53:26;19.70;;;10.40;;
3755;SDS011;1893;52.526;13.360;2024-02-28T09:55:55;21.00;;;11.83;;
3755;SDS011;1893;52.526;13.360;2024-02-28T09:58:20;21.47;;;11.23;;
3755;SDS011;1893;52.526;13.360;2024-02-28T10:00:47;25.30;;;10.87;;
3755;SDS011;1893;52.526;13.360;2024-02-28T10:03:16;18.10;;;10.27;;
3755;SDS011;1893;52.526;13.360;2024-02-28T10:05:46;18.70;;;10.23;;
3755;SDS011;1893;52.526;13.360;2024-02-28T10:08:12;23.20;;;11.27;;
3755;SDS011;1893;52.526;13.360;2024-02-28T10:10:44;26.40;;;12.43;;
3755;SDS011;1893;52.526;13.360;2024-02-28T10:13:11;23.03;;;11.50;;
3755;SDS011;1893;52.526;13.360;2024-02-28T10:15:36;19.27;;;10.30;;
3755;SDS011;1893;52.526;13.360;2024-02-28T10:18:02;19.20;;;10.73;;
3755;SDS011;1893;52.526;13.360;2024-02-28T10:20:30;22.73;;;10.70;;
3755;SDS011;1893;52.526;13.360;2024-02-28T10:22:56;21.70;;;9.87;;
3755;SDS011;1893;52.526;13.360;2024-02-28T10:25:21;23.43;;;11.90;;
3755;SDS011;1893;52.526;13.360;2024-02-28T10:27:47;19.60;;;10.80;;
3755;SDS011;1893;52.526;13.360;2024-02-28T10:30:12;25.63;;;12.57;;
3755;SDS011;1893;52.526;13.360;2024-02-28T10:32:47;19.50;;;11.30;;
3755;SDS011;1893;52.526;13.360;2024-02-28T10:35:14;27.93;;;12.17;;
3755;SDS011;1893;52.526;13.360;2024-02-28T10:37:44;22.80;;;11.50;;
3755;SDS011;1893;52.526;13.360;2024-02-28T10:40:11;25.80;;;13.10;;
3755;SDS011;1893;52.526;13.360;2024-02-28T10:42:40;25.33;;;12.20;;
3755;SDS011;1893;52.526;13.360;2024-02-28T10:45:09;27.53;;;12.20;;
3755;SDS011;1893;52.526;13.360;2024-02-28T10:47:37;23.70;;;12.47;;
3755;SDS011;1893;52.526;13.360;2024-02-28T10:50:03;25.33;;;12.03;;
3755;SDS011;1893;52.526;13.360;2024-02-28T10:52:29;28.50;;;13.23;;
3755;SDS011;1893;52.526;13.360;2024-02-28T10:54:58;21.37;;;11.37;;
3755;SDS011;1893;52.526;13.360;2024-02-28T10:57:26;20.37;;;10.67;;
3755;SDS011;1893;52.526;13.360;2024-02-28T10:59:54;27.60;;;12.67;;
3755;SDS011;1893;52.526;13.360;2024-02-28T11:02:21;22.83;;;13.20;;
3755;SDS011;1893;52.526;13.360;2024-02-28T11:04:50;29.27;;;14.13;;
3755;SDS011;1893;52.526;13.360;2024-02-28T11:07:20;24.10;;;12.00;;
3755;SDS011;1893;52.526;13.360;2024-02-28T11:09:46;23.30;;;11.87;;
3755;SDS011;1893;52.526;13.360;2024-02-28T11:12:28;28.87;;;11.60;;
3755;SDS011;1893;52.526;13.360;2024-02-28T11:15:00;21.33;;;12.90;;
3755;SDS011;1893;52.526;13.360;2024-02-28T11:17:28;25.13;;;13.10;;
3755;SDS011;1893;52.526;13.360;2024-02-28T11:19:55;24.33;;;11.47;;
3755;SDS011;1893;52.526;13.360;2024-02-28T11:22:21;21.90;;;12.00;;
3755;SDS011;1893;52.526;13.360;2024-02-28T11:24:47;20.03;;;10.20;;
3755;SDS011;1893;52.526;13.360;2024-02-28T11:27:14;25.53;;;10.80;;
3755;SDS011;1893;52.526;13.360;2024-02-28T11:29:41;20.10;;;11.20;;
3755;SDS011;1893;52.526;13.360;2024-02-28T11:32:07;21.53;;;10.33;;
3755;SDS011;1893;52.526;13.360;2024-02-28T11:34:36;18.70;;;10.13;;
3755;SDS011;1893;52.526;13.360;2024-02-28T11:37:02;16.63;;;9.67;;
3755;SDS011;1893;52.526;13.360;2024-02-28T11:39:28;21.93;;;10.17;;
3755;SDS011;1893;52.526;13.360;2024-02-28T11:41:55;17.20;;;9.10;;
3755;SDS011;1893;52.526;13.360;2024-02-28T11:44:20;15.20;;;9.13;;
3755;SDS011;1893;52.526;13.360;2024-02-28T11:46:47;15.00;;;8.57;;
3755;SDS011;1893;52.526;13.360;2024-02-28T11:49:13;18.37;;;9.33;;
3755;SDS011;1893;52.526;13.360;2024-02-28T11:51:43;20.00;;;9.90;;
3755;SDS011;1893;52.526;13.360;2024-02-28T11:54:09;15.93;;;8.60;;
3755;SDS011;1893;52.526;13.360;2024-02-28T11:56:39;17.63;;;8.80;;
3755;SDS011;1893;52.526;13.360;2024-02-28T11:59:05;18.43;;;8.23;;
3755;SDS011;1893;52.526;13.360;2024-02-28T12:01:34;11.60;;;7.57;;
3755;SDS011;1893;52.526;13.360;2024-02-28T12:04:04;18.33;;;9.37;;
3755;SDS011;1893;52.526;13.360;2024-02-28T12:06:30;13.63;;;7.70;;
3755;SDS011;1893;52.526;13.360;2024-02-28T12:08:56;16.63;;;8.77;;
3755;SDS011;1893;52.526;13.360;2024-02-28T12:11:24;16.40;;;7.60;;
3755;SDS011;1893;52.526;13.360;2024-02-28T12:13:53;13.67;;;7.17;;
3755;SDS011;1893;52.526;13.360;2024-02-28T12:16:24;14.53;;;7.83;;
3755;SDS011;1893;52.526;13.360;2024-02-28T12:18:51;14.27;;;7.83;;
3755;SDS011;1893;52.526;13.360;2024-02-28T12:21:17;15.83;;;8.53;;
3755;SDS011;1893;52.526;13.360;2024-02-28T12:23:44;21.33;;;8.97;;
3755;SDS011;1893;52.526;13.360;2024-02-28T12:26:10;16.50;;;8.13;;
3755;SDS011;1893;52.526;13.360;2024-02-28T12:28:36;13.70;;;7.70;;
3755;SDS011;1893;52.526;13.360;2024-02-28T12:31:01;16.13;;;7.97;;
3755;SDS011;1893;52.526;13.360;2024-02-28T12:33:27;13.20;;;7.00;;
3755;SDS011;1893;52.526;13.360;2024-02-28T12:35:52;13.87;;;7.57;;
3755;SDS011;1893;52.526;13.360;2024-02-28T12:38:18;15.30;;;8.80;;
3755;SDS011;1893;52.526;13.360;2024-02-28T12:40:45;17.47;;;9.00;;
3755;SDS011;1893;52.526;13.360;2024-02-28T12:43:10;17.87;;;10.40;;
3755;SDS011;1893;52.526;13.360;2024-02-28T12:45:36;18.90;;;10.33;;
3755;SDS011;1893;52.526;13.360;2024-02-28T12:48:01;13.00;;;7.93;;
3755;SDS011;1893;52.526;13.360;2024-02-28T12:50:27;17.90;;;10.33;;
3755;SDS011;1893;52.526;13.360;2024-02-28T12:52:53;20.37;;;11.50;;
3755;SDS011;1893;52.526;13.360;2024-02-28T12:55:19;17.87;;;11.70;;
3755;SDS011;1893;52.526;13.360;2024-02-28T12:57:48;19.40;;;11.83;;
3755;SDS011;1893;52.526;13.360;2024-02-28T13:00:13;24.20;;;12.87;;
3755;SDS011;1893;52.526;13.360;2024-02-28T13:02:39;18.20;;;10.83;;
3755;SDS011;1893;52.526;13.360;2024-02-28T13:05:05;19.73;;;10.50;;
3755;SDS011;1893;52.526;13.360;2024-02-28T13:07:31;20.67;;;10.67;;
3755;SDS011;1893;52.526;13.360;2024-02-28T13:09:56;13.43;;;9.27;;
3755;SDS011;1893;52.526;13.360;2024-02-28T13:12:22;15.63;;;9.93;;
3755;SDS011;1893;52.526;13.360;2024-02-28T13:14:47;16.93;;;8.57;;
3755;SDS011;1893;52.526;13.360;2024-02-28T13:17:13;25.93;;;12.60;;
3755;SDS011;1893;52.526;13.360;2024-02-28T13:19:40;22.17;;;12.67;;
3755;SDS011;1893;52.526;13.360;2024-02-28T13:22:06;23.10;;;15.10;;
3755;SDS011;1893;52.526;13.360;2024-02-28T13:24:31;25.50;;;16.37;;
3755;SDS011;1893;52.526;13.360;2024-02-28T13:26:57;30.77;;;14.87;;
3755;SDS011;1893;52.526;13.360;2024-02-28T13:29:23;24.60;;;15.57;;
3755;SDS011;1893;52.526;13.360;2024-02-28T13:31:48;27.57;;;14.37;;
3755;SDS011;1893;52.526;13.360;2024-02-28T13:34:14;27.83;;;14.80;;
3755;SDS011;1893;52.526;13.360;2024-02-28T13:36:40;21.87;;;12.40;;
3755;SDS011;1893;52.526;13.360;2024-02-28T13:39:09;24.03;;;14.20;;
3755;SDS011;1893;52.526;13.360;2024-02-28T13:41:36;23.97;;;14.80;;
3755;SDS011;1893;52.526;13.360;2024-02-28T13:44:02;23.83;;;13.93;;
3755;SDS011;1893;52.526;13.360;2024-02-28T13:46:28;23.50;;;12.67;;
3755;SDS011;1893;52.526;13.360;2024-02-28T13:48:53;19.93;;;13.70;;
3755;SDS011;1893;52.526;13.360;2024-02-28T13:51:19;22.60;;;12.90;;
3755;SDS011;1893;52.526;13.360;2024-02-28T13:53:45;20.90;;;12.60;;
3755;SDS011;1893;52.526;13.360;2024-02-28T13:56:10;25.40;;;14.77;;
3755;SDS011;1893;52.526;13.360;2024-02-28T13:58:36;25.80;;;13.60;;
3755;SDS011;1893;52.526;13.360;2024-02-28T14:01:02;22.30;;;14.20;;
3755;SDS011;1893;52.526;13.360;2024-02-28T14:03:27;25.03;;;14.03;;
3755;SDS011;1893;52.526;13.360;2024-02-28T14:05:53;24.27;;;14.43;;
3755;SDS011;1893;52.526;13.360;2024-02-28T14:08:19;23.93;;;15.57;;
3755;SDS011;1893;52.526;13.360;2024-02-28T14:10:44;25.07;;;15.10;;
3755;SDS011;1893;52.526;13.360;2024-02-28T14:13:10;23.87;;;14.53;;
3755;SDS011;1893;52.526;13.360;2024-02-28T14:15:37;28.10;;;13.90;;
3755;SDS011;1893;52.526;13.360;2024-02-28T14:18:03;23.23;;;13.10;;
3755;SDS011;1893;52.526;13.360;2024-02-28T14:20:29;19.97;;;10.73;;
3755;SDS011;1893;52.526;13.360;2024-02-28T14:22:55;18.37;;;10.83;;
3755;SDS011;1893;52.526;13.360;2024-02-28T14:25:21;17.20;;;10.97;;
3755;SDS011;1893;52.526;13.360;2024-02-28T14:27:47;18.20;;;10.90;;
3755;SDS011;1893;52.526;13.360;2024-02-28T14:30:13;16.60;;;11.23;;
3755;SDS011;1893;52.526;13.360;2024-02-28T14:32:40;16.53;;;10.23;;
3755;SDS011;1893;52.526;13.360;2024-02-28T14:35:08;19.73;;;10.90;;
3755;SDS011;1893;52.526;13.360;2024-02-28T14:37:35;20.20;;;10.63;;